sensor_id;sensor_type;location;lat;lon;timestamp;pressure;altitude;pressure_sealevel;temperature;humidity
23446;BME280;11895;48.738;9.320;2023-05-21T00:15:03;98325.69;;;19.18;100.00
23446;BME280;11895;48.738;9.320;2023-05-21T00:17:31;98320.38;;;19.16;100.00
23446;BME280;11895;48.738;9.320;2023-05-21T00:20:00;98323.38;;;19.13;100.00
23446;BME280;11895;48.738;9.320;2023-05-21T00:22:28;98317.91;;;19.13;100.00
23446;BME280;11895;48.738;9.320;2023-05-21T00:24:56;98316.19;;;19.12;100.00
23446;BME280;11895;48.738;9.320;2023-05-21T00:27:28;98310.69;;;19.03;100.00
23446;BME280;11895;48.738;9.320;2023-05-21T00:29:56;98311.53;;;19.03;100.00
23446;BME280;11895;48.738;9.320;2023-05-21T00:32:23;98305.06;;;19.04;100.00
23446;BME280;11895;48.738;9.320;2023-05-21T00:34:51;98304.38;;;19.02;100.00
23446;BME280;11895;48.738;9.320;2023-05-21T00:37:19;98299.50;;;19.06;100.00
23446;BME280;11895;48.738;9.320;2023-05-21T00:39:46;98295.47;;;19.10;100.00
23446;BME280;11895;48.738;9.320;2023-05-21T00:42:13;98292.63;;;19.11;100.00
23446;BME280;11895;48.738;9.320;2023-05-21T00:44:44;98300.41;;;19.16;100.00
23446;BME280;11895;48.738;9.320;2023-05-21T00:47:18;98298.09;;;19.11;100.00
23446;BME280;11895;48.738;9.320;2023-05-21T00:49:50;98294.63;;;19.09;100.00
23446;BME280;11895;48.738;9.320;2023-05-21T00:52:20;98288.03;;;19.12;100.00
23446;BME280;11895;48.738;9.320;2023-05-21T00:54:49;98296.72;;;18.96;100.00
23446;BME280;11895;48.738;9.320;2023-05-21T00:57:24;98295.97;;;18.94;100.00
23446;BME280;11895;48.738;9.320;2023-05-21T00:59:53;98290.25;;;18.97;100.00
23446;BME280;11895;48.738;9.320;2023-05-21T01:02:21;98288.66;;;18.94;100.00
23446;BME280;11895;48.738;9.320;2023-05-21T01:04:53;98298.44;;;18.97;100.00
23446;BME280;11895;48.738;9.320;2023-05-21T01:07:22;98292.00;;;18.98;100.00
23446;BME280;11895;48.738;9.320;2023-05-21T01:09:50;98292.00;;;18.98;100.00
23446;BME280;11895;48.738;9.320;2023-05-21T01:12:19;98290.25;;;18.97;100.00
23446;BME280;11895;48.738;9.320;2023-05-21T01:14:51;98294.00;;;18.96;100.00
23446;BME280;11895;48.738;9.320;2023-05-21T01:17:19;98279.59;;;18.94;100.00
23446;BME280;11895;48.738;9.320;2023-05-21T01:19:51;98275.56;;;18.88;100.00
23446;BME280;11895;48.738;9.320;2023-05-21T01:22:22;98284.91;;;18.86;100.00
23446;BME280;11895;48.738;9.320;2023-05-21T01:24:53;98279.56;;;18.84;100.00
23446;BME280;11895;48.738;9.320;2023-05-21T01:27:22;98283.91;;;18.87;100.00
23446;BME280;11895;48.738;9.320;2023-05-21T01:29:49;98277.84;;;18.83;100.00
23446;BME280;11895;48.738;9.320;2023-05-21T01:35:21;98273.50;;;18.81;100.00
23446;BME280;11895;48.738;9.320;2023-05-21T01:40:35;98282.69;;;18.80;100.00
23446;BME280;11895;48.738;9.320;2023-05-21T01:43:07;98283.25;;;18.73;100.00
23446;BME280;11895;48.738;9.320;2023-05-21T01:45:39;98277.72;;;18.64;100.00
23446;BME280;11895;48.738;9.320;2023-05-21T01:48:10;98276.84;;;18.63;100.00
23446;BME280;11895;48.738;9.320;2023-05-21T01:50:41;98273.66;;;18.58;100.00
23446;BME280;11895;48.738;9.320;2023-05-21T01:53:11;98281.72;;;18.60;100.00
23446;BME280;11895;48.738;9.320;2023-05-21T01:55:38;98280.59;;;18.62;100.00
23446;BME280;11895;48.738;9.320;2023-05-21T01:58:07;98269.63;;;18.53;100.00
23446;BME280;11895;48.738;9.320;2023-05-21T02:00:35;98274.47;;;18.49;100.00
23446;BME280;11895;48.738;9.320;2023-05-21T02:03:03;98271.59;;;18.50;100.00
23446;BME280;11895;48.738;9.320;2023-05-21T02:05:32;98274.72;;;18.46;100.00
23446;BME280;11895;48.738;9.320;2023-05-21T02:08:00;98269.56;;;18.43;100.00
23446;BME280;11895;48.738;9.320;2023-05-21T02:10:27;98268.69;;;18.42;100.00
23446;BME280;11895;48.738;9.320;2023-05-21T02:13:47;98276.88;;;18.42;100.00
23446;BME280;11895;48.738;9.320;2023-05-21T02:16:29;98274.81;;;18.35;100.00
23446;BME280;11895;48.738;9.320;2023-05-21T02:18:57;98279.53;;;18.33;100.00
23446;BME280;11895;48.738;9.320;2023-05-21T02:21:26;98283.59;;;18.38;100.00
23446;BME280;11895;48.738;9.320;2023-05-21T02:23:53;98281.81;;;18.28;100.00
23446;BME280;11895;48.738;9.320;2023-05-21T02:26:21;98280.34;;;18.23;100.00
23446;BME280;11895;48.738;9.320;2023-05-21T02:28:49;98271.88;;;18.27;100.00
23446;BME280;11895;48.738;9.320;2023-05-21T02:31:18;98281.84;;;18.16;100.00
23446;BME280;11895;48.738;9.320;2023-05-21T02:33:46;98264.78;;;18.14;100.00
23446;BME280;11895;48.738;9.320;2023-05-21T02:36:13;98279.50;;;18.12;100.00
23446;BME280;11895;48.738;9.320;2023-05-21T02:38:41;98265.03;;;18.11;100.00
23446;BME280;11895;48.738;9.320;2023-05-21T02:41:13;98270.31;;;17.92;100.00
23446;BME280;11895;48.738;9.320;2023-05-21T02:43:40;98268.34;;;17.94;100.00
23446;BME280;11895;48.738;9.320;2023-05-21T02:46:07;98275.44;;;17.85;100.00
23446;BME280;11895;48.738;9.320;2023-05-21T02:48:35;98273.97;;;17.81;100.00
23446;BME280;11895;48.738;9.320;2023-05-21T02:51:09;98273.09;;;17.81;100.00
23446;BME280;11895;48.738;9.320;2023-05-21T02:53:40;98266.41;;;17.85;100.00
23446;BME280;11895;48.738;9.320;2023-05-21T02:56:28;98266.69;;;17.70;100.00
23446;BME280;11895;48.738;9.320;2023-05-21T02:59:24;98270.13;;;17.72;100.00
23446;BME280;11895;48.738;9.320;2023-05-21T03:01:51;98265.34;;;17.65;100.00
23446;BME280;11895;48.738;9.320;2023-05-21T03:04:19;98264.25;;;17.56;100.00
23446;BME280;11895;48.738;9.320;2023-05-21T03:06:51;98264.50;;;17.53;100.00
23446;BME280;11895;48.738;9.320;2023-05-21T03:09:21;98261.91;;;17.52;100.00
23446;BME280;11895;48.738;9.320;2023-05-21T03:11:49;98256.47;;;17.52;100.00
23446;BME280;11895;48.738;9.320;2023-05-21T03:14:17;98258.28;;;17.62;100.00
23446;BME280;11895;48.738;9.320;2023-05-21T03:19:55;98256.81;;;17.58;100.00
23446;BME280;11895;48.738;9.320;2023-05-21T03:26:08;98256.56;;;17.50;100.00
23446;BME280;11895;48.738;9.320;2023-05-21T03:32:21;98247.72;;;17.37;100.00
23446;BME280;11895;48.738;9.320;2023-05-21T03:43:04;98257.66;;;17.04;100.00
23446;BME280;11895;48.738;9.320;2023-05-21T03:54:00;98260.88;;;16.87;100.00
23446;BME280;11895;48.738;9.320;2023-05-21T03:57:27;98267.06;;;16.78;100.00
23446;BME280;11895;48.738;9.320;2023-05-21T04:03:38;98270.19;;;16.84;100.00
23446;BME280;11895;48.738;9.320;2023-05-21T04:17:19;98290.59;;;16.79;100.00
23446;BME280;11895;48.738;9.320;2023-05-21T04:19:47;98290.41;;;16.69;100.00
23446;BME280;11895;48.738;9.320;2023-05-21T04:22:15;98291.53;;;16.78;100.00
23446;BME280;11895;48.738;9.320;2023-05-21T04:24:43;98293.53;;;16.87;100.00
23446;BME280;11895;48.738;9.320;2023-05-21T04:27:18;98291.81;;;16.86;100.00
23446;BME280;11895;48.738;9.320;2023-05-21T04:29:50;98297.75;;;16.91;100.00
23446;BME280;11895;48.738;9.320;2023-05-21T04:32:17;98300.72;;;16.88;100.00
23446;BME280;11895;48.738;9.320;2023-05-21T04:34:44;98303.31;;;16.89;100.00
23446;BME280;11895;48.738;9.320;2023-05-21T04:37:12;98308.13;;;16.86;100.00
23446;BME280;11895;48.738;9.320;2023-05-21T04:39:39;98307.63;;;16.92;100.00
23446;BME280;11895;48.738;9.320;2023-05-21T04:42:07;98306.16;;;16.99;100.00
23446;BME280;11895;48.738;9.320;2023-05-21T04:44:37;98310.75;;;16.99;100.00
23446;BME280;11895;48.738;9.320;2023-05-21T04:47:06;98314.19;;;17.12;100.00
23446;BME280;11895;48.738;9.320;2023-05-21T04:49:35;98313.59;;;16.97;100.00
23446;BME280;11895;48.738;9.320;2023-05-21T04:52:02;98327.28;;;16.27;100.00
23446;BME280;11895;48.738;9.320;2023-05-21T04:54:29;98316.59;;;16.12;100.00
23446;BME280;11895;48.738;9.320;2023-05-21T04:56:57;98320.06;;;16.50;100.00
23446;BME280;11895;48.738;9.320;2023-05-21T04:59:24;98322.91;;;16.59;100.00
23446;BME280;11895;48.738;9.320;2023-05-21T05:01:51;98317.03;;;16.77;100.00
23446;BME280;11895;48.738;9.320;2023-05-21T05:04:21;98316.78;;;16.91;100.00
23446;BME280;11895;48.738;9.320;2023-05-21T05:06:48;98314.31;;;16.99;100.00
23446;BME280;11895;48.738;9.320;2023-05-21T05:09:16;98317.03;;;17.10;100.00
23446;BME280;11895;48.738;9.320;2023-05-21T05:11:44;98325.22;;;17.21;100.00
23446;BME280;11895;48.738;9.320;2023-05-21T05:14:11;98324.44;;;17.31;100.00
23446;BME280;11895;48.738;9.320;2023-05-21T05:16:41;98316.88;;;17.34;100.00
23446;BME280;11895;48.738;9.320;2023-05-21T05:23:03;98313.75;;;17.50;100.00
23446;BME280;11895;48.738;9.320;2023-05-21T05:25:30;98308.31;;;17.50;100.00
23446;BME280;11895;48.738;9.320;2023-05-21T05:27:58;98314.22;;;17.66;100.00
23446;BME280;11895;48.738;9.320;2023-05-21T05:30:26;98321.41;;;17.67;100.00
23446;BME280;11895;48.738;9.320;2023-05-21T05:32:58;98323.13;;;17.68;100.00
23446;BME280;11895;48.738;9.320;2023-05-21T05:35:25;98316.41;;;17.84;100.00
23446;BME280;11895;48.738;9.320;2023-05-21T05:52:45;98323.81;;;18.25;100.00
23446;BME280;11895;48.738;9.320;2023-05-21T06:06:25;98315.28;;;19.02;100.00
23446;BME280;11895;48.738;9.320;2023-05-21T06:08:52;98308.16;;;19.11;100.00
23446;BME280;11895;48.738;9.320;2023-05-21T06:15:06;98323.56;;;19.21;100.00
23446;BME280;11895;48.738;9.320;2023-05-21T06:17:33;98311.66;;;19.32;100.00
23446;BME280;11895;48.738;9.320;2023-05-21T06:20:03;98310.84;;;19.01;100.00
23446;BME280;11895;48.738;9.320;2023-05-21T06:22:32;98313.31;;;19.14;100.00
23446;BME280;11895;48.738;9.320;2023-05-21T06:25:00;98311.63;;;19.22;100.00
23446;BME280;11895;48.738;9.320;2023-05-21T06:27:27;98310.91;;;19.61;100.00
23446;BME280;11895;48.738;9.320;2023-05-21T06:29:55;98308.47;;;19.67;100.00
23446;BME280;11895;48.738;9.320;2023-05-21T06:32:24;98310.69;;;20.02;100.00
23446;BME280;11895;48.738;9.320;2023-05-21T06:34:51;98312.13;;;19.97;100.00
23446;BME280;11895;48.738;9.320;2023-05-21T06:37:20;98306.22;;;20.11;100.00
23446;BME280;11895;48.738;9.320;2023-05-21T06:39:53;98312.56;;;20.02;100.00
23446;BME280;11895;48.738;9.320;2023-05-21T06:42:21;98316.72;;;20.06;100.00
23446;BME280;11895;48.738;9.320;2023-05-21T06:45:07;98303.47;;;20.11;100.00
23446;BME280;11895;48.738;9.320;2023-05-21T06:47:37;98313.53;;;20.11;100.00
23446;BME280;11895;48.738;9.320;2023-05-21T06:50:05;98313.84;;;20.27;100.00
23446;BME280;11895;48.738;9.320;2023-05-21T06:52:32;98320.47;;;20.24;100.00
23446;BME280;11895;48.738;9.320;2023-05-21T06:55:01;98316.72;;;20.54;100.00
23446;BME280;11895;48.738;9.320;2023-05-21T06:57:42;98310.34;;;20.73;100.00
23446;BME280;11895;48.738;9.320;2023-05-21T07:00:11;98319.56;;;20.72;100.00
23446;BME280;11895;48.738;9.320;2023-05-21T07:02:39;98320.41;;;20.83;100.00
23446;BME280;11895;48.738;9.320;2023-05-21T07:05:06;98315.69;;;21.12;100.00
23446;BME280;11895;48.738;9.320;2023-05-21T07:07:34;98319.13;;;21.34;100.00
23446;BME280;11895;48.738;9.320;2023-05-21T07:10:03;98320.56;;;21.55;100.00
23446;BME280;11895;48.738;9.320;2023-05-21T07:12:30;98313.72;;;21.69;100.00
23446;BME280;11895;48.738;9.320;2023-05-21T07:14:58;98322.84;;;21.88;100.00
23446;BME280;11895;48.738;9.320;2023-05-21T07:17:29;98318.25;;;22.06;100.00
23446;BME280;11895;48.738;9.320;2023-05-21T07:19:57;98319.78;;;22.08;100.00
23446;BME280;11895;48.738;9.320;2023-05-21T07:22:26;98326.72;;;21.40;100.00
23446;BME280;11895;48.738;9.320;2023-05-21T07:24:54;98335.63;;;21.04;100.00
23446;BME280;11895;48.738;9.320;2023-05-21T07:27:22;98320.88;;;21.15;100.00
23446;BME280;11895;48.738;9.320;2023-05-21T07:29:53;98323.38;;;21.46;100.00
23446;BME280;11895;48.738;9.320;2023-05-21T07:32:21;98318.84;;;21.17;100.00
23446;BME280;11895;48.738;9.320;2023-05-21T07:34:49;98322.56;;;21.36;100.00
23446;BME280;11895;48.738;9.320;2023-05-21T07:37:20;98316.28;;;21.98;100.00
23446;BME280;11895;48.738;9.320;2023-05-21T07:39:48;98319.34;;;22.13;100.00
23446;BME280;11895;48.738;9.320;2023-05-21T07:42:15;98323.25;;;22.11;100.00
23446;BME280;11895;48.738;9.320;2023-05-21T07:44:43;98318.78;;;21.92;100.00
23446;BME280;11895;48.738;9.320;2023-05-21T07:47:10;98321.69;;;22.08;100.00
23446;BME280;11895;48.738;9.320;2023-05-21T07:49:37;98312.03;;;22.04;100.00
23446;BME280;11895;48.738;9.320;2023-05-21T07:52:05;98314.72;;;22.49;100.00
23446;BME280;11895;48.738;9.320;2023-05-21T07:54:33;98314.69;;;22.67;100.00
23446;BME280;11895;48.738;9.320;2023-05-21T07:57:01;98309.91;;;21.98;100.00
23446;BME280;11895;48.738;9.320;2023-05-21T08:00:01;98314.25;;;22.18;100.00
23446;BME280;11895;48.738;9.320;2023-05-21T08:02:32;98305.00;;;22.55;100.00
23446;BME280;11895;48.738;9.320;2023-05-21T08:04:59;98303.75;;;22.31;100.00
23446;BME280;11895;48.738;9.320;2023-05-21T08:07:30;98305.09;;;22.71;100.00
23446;BME280;11895;48.738;9.320;2023-05-21T08:09:58;98297.31;;;22.58;100.00
23446;BME280;11895;48.738;9.320;2023-05-21T08:12:29;98302.75;;;22.76;100.00
23446;BME280;11895;48.738;9.320;2023-05-21T08:14:57;98302.91;;;22.93;100.00
23446;BME280;11895;48.738;9.320;2023-05-21T08:17:25;98304.63;;;23.28;100.00
23446;BME280;11895;48.738;9.320;2023-05-21T08:19:54;98292.31;;;23.40;100.00
23446;BME280;11895;48.738;9.320;2023-05-21T08:22:23;98305.06;;;23.92;98.69
23446;BME280;11895;48.738;9.320;2023-05-21T08:24:50;98300.44;;;23.92;99.13
23446;BME280;11895;48.738;9.320;2023-05-21T08:27:18;98307.00;;;22.89;100.00
23446;BME280;11895;48.738;9.320;2023-05-21T08:29:45;98302.34;;;22.71;100.00
23446;BME280;11895;48.738;9.320;2023-05-21T08:32:13;98307.06;;;23.05;100.00
23446;BME280;11895;48.738;9.320;2023-05-21T08:34:41;98308.91;;;23.30;100.00
23446;BME280;11895;48.738;9.320;2023-05-21T08:37:23;98302.97;;;23.09;100.00
23446;BME280;11895;48.738;9.320;2023-05-21T08:40:10;98298.34;;;22.83;100.00
23446;BME280;11895;48.738;9.320;2023-05-21T08:42:46;98304.53;;;22.86;100.00
23446;BME280;11895;48.738;9.320;2023-05-21T08:45:25;98301.50;;;23.57;99.66
23446;BME280;11895;48.738;9.320;2023-05-21T08:47:58;98299.59;;;23.57;89.86
23446;BME280;11895;48.738;9.320;2023-05-21T08:50:31;98294.97;;;24.08;87.02
23446;BME280;11895;48.738;9.320;2023-05-21T08:53:03;98297.91;;;24.23;81.08
23446;BME280;11895;48.738;9.320;2023-05-21T08:55:52;98302.94;;;24.52;79.24
23446;BME280;11895;48.738;9.320;2023-05-21T08:58:22;98303.47;;;24.48;82.87
23446;BME280;11895;48.738;9.320;2023-05-21T09:00:50;98303.03;;;23.94;82.82
23446;BME280;11895;48.738;9.320;2023-05-21T09:03:20;98310.25;;;24.11;81.06
23446;BME280;11895;48.738;9.320;2023-05-21T09:05:55;98306.94;;;23.83;82.41
23446;BME280;11895;48.738;9.320;2023-05-21T09:08:34;98315.50;;;24.47;82.07
23446;BME280;11895;48.738;9.320;2023-05-21T09:11:06;98311.31;;;24.26;81.67
23446;BME280;11895;48.738;9.320;2023-05-21T09:13:43;98316.03;;;24.67;79.46
23446;BME280;11895;48.738;9.320;2023-05-21T09:16:19;98308.41;;;24.28;79.21
23446;BME280;11895;48.738;9.320;2023-05-21T09:18:48;98317.22;;;24.56;77.79
23446;BME280;11895;48.738;9.320;2023-05-21T09:21:28;98310.28;;;25.25;75.32
23446;BME280;11895;48.738;9.320;2023-05-21T09:24:03;98315.69;;;25.50;70.93
23446;BME280;11895;48.738;9.320;2023-05-21T09:26:31;98313.28;;;25.94;69.15
23446;BME280;11895;48.738;9.320;2023-05-21T09:29:04;98313.34;;;26.09;65.28
23446;BME280;11895;48.738;9.320;2023-05-21T09:31:31;98312.13;;;25.72;67.50
23446;BME280;11895;48.738;9.320;2023-05-21T09:34:00;98310.75;;;25.84;67.97
23446;BME280;11895;48.738;9.320;2023-05-21T09:36:27;98307.44;;;25.89;68.46
23446;BME280;11895;48.738;9.320;2023-05-21T09:38:58;98309.22;;;26.59;65.08
23446;BME280;11895;48.738;9.320;2023-05-21T09:41:34;98306.97;;;26.77;61.49
23446;BME280;11895;48.738;9.320;2023-05-21T09:44:03;98297.41;;;27.03;61.92
23446;BME280;11895;48.738;9.320;2023-05-21T09:46:40;98303.84;;;27.18;58.24
23446;BME280;11895;48.738;9.320;2023-05-21T09:49:24;98302.25;;;27.01;60.45
23446;BME280;11895;48.738;9.320;2023-05-21T09:51:57;98297.28;;;27.19;59.75
23446;BME280;11895;48.738;9.320;2023-05-21T09:54:31;98303.09;;;27.54;57.47
23446;BME280;11895;48.738;9.320;2023-05-21T09:57:00;98305.34;;;27.95;57.05
23446;BME280;11895;48.738;9.320;2023-05-21T09:59:40;98298.66;;;28.25;53.29
23446;BME280;11895;48.738;9.320;2023-05-21T10:02:21;98305.09;;;28.47;50.94
23446;BME280;11895;48.738;9.320;2023-05-21T10:04:51;98298.88;;;27.87;53.29
23446;BME280;11895;48.738;9.320;2023-05-21T10:07:21;98303.19;;;27.46;56.22
23446;BME280;11895;48.738;9.320;2023-05-21T10:09:56;98296.13;;;27.43;59.43
23446;BME280;11895;48.738;9.320;2023-05-21T10:12:26;98299.22;;;26.96;65.14
23446;BME280;11895;48.738;9.320;2023-05-21T10:15:02;98294.88;;;26.78;64.06
23446;BME280;11895;48.738;9.320;2023-05-21T10:17:31;98299.22;;;26.58;65.83
23446;BME280;11895;48.738;9.320;2023-05-21T10:20:00;98294.78;;;26.03;69.39
23446;BME280;11895;48.738;9.320;2023-05-21T10:22:29;98283.31;;;26.14;72.99
23446;BME280;11895;48.738;9.320;2023-05-21T10:24:59;98286.50;;;26.72;65.67
23446;BME280;11895;48.738;9.320;2023-05-21T10:27:29;98285.88;;;26.38;70.41
23446;BME280;11895;48.738;9.320;2023-05-21T10:29:59;98290.63;;;26.53;69.88
23446;BME280;11895;48.738;9.320;2023-05-21T10:32:27;98291.81;;;27.11;63.53
23446;BME280;11895;48.738;9.320;2023-05-21T10:34:56;98287.16;;;27.11;63.12
23446;BME280;11895;48.738;9.320;2023-05-21T10:37:27;98283.06;;;27.52;60.24
23446;BME280;11895;48.738;9.320;2023-05-21T10:39:56;98289.75;;;27.13;61.07
23446;BME280;11895;48.738;9.320;2023-05-21T10:55:18;98278.56;;;26.69;67.23
23446;BME280;11895;48.738;9.320;2023-05-21T11:01:00;98268.09;;;27.16;63.09
23446;BME280;11895;48.738;9.320;2023-05-21T11:03:30;98270.53;;;26.97;60.46
23446;BME280;11895;48.738;9.320;2023-05-21T11:06:03;98274.69;;;25.86;71.26
23446;BME280;11895;48.738;9.320;2023-05-21T11:08:34;98281.22;;;26.16;69.07
23446;BME280;11895;48.738;9.320;2023-05-21T11:11:04;98267.59;;;26.98;64.96
23446;BME280;11895;48.738;9.320;2023-05-21T11:13:47;98276.69;;;28.02;56.73
23446;BME280;11895;48.738;9.320;2023-05-21T11:16:17;98280.16;;;27.89;55.24
23446;BME280;11895;48.738;9.320;2023-05-21T11:21:20;98270.88;;;29.04;49.14
23446;BME280;11895;48.738;9.320;2023-05-21T11:24:00;98266.81;;;29.76;45.49
23446;BME280;11895;48.738;9.320;2023-05-21T11:27:05;98264.41;;;30.21;45.27
23446;BME280;11895;48.738;9.320;2023-05-21T11:29:40;98273.88;;;30.33;43.47
23446;BME280;11895;48.738;9.320;2023-05-21T11:32:13;98269.16;;;30.27;43.22
23446;BME280;11895;48.738;9.320;2023-05-21T11:34:45;98265.78;;;30.52;42.96
23446;BME280;11895;48.738;9.320;2023-05-21T11:39:44;98271.16;;;30.86;40.60
23446;BME280;11895;48.738;9.320;2023-05-21T11:42:39;98264.09;;;30.90;39.93
23446;BME280;11895;48.738;9.320;2023-05-21T11:45:09;98273.03;;;31.32;39.06
23446;BME280;11895;48.738;9.320;2023-05-21T11:47:39;98271.81;;;31.86;37.42
23446;BME280;11895;48.738;9.320;2023-05-21T11:50:12;98273.66;;;32.06;37.21
23446;BME280;11895;48.738;9.320;2023-05-21T11:52:41;98272.47;;;31.88;35.35
23446;BME280;11895;48.738;9.320;2023-05-21T11:55:09;98280.53;;;32.03;35.32
23446;BME280;11895;48.738;9.320;2023-05-21T11:57:41;98271.09;;;31.46;35.67
23446;BME280;11895;48.738;9.320;2023-05-21T12:00:15;98274.91;;;32.16;35.29
23446;BME280;11895;48.738;9.320;2023-05-21T12:02:54;98270.16;;;31.65;35.21
23446;BME280;11895;48.738;9.320;2023-05-21T12:05:23;98274.16;;;31.89;35.64
23446;BME280;11895;48.738;9.320;2023-05-21T12:07:51;98275.50;;;31.67;35.30
23446;BME280;11895;48.738;9.320;2023-05-21T12:10:23;98272.47;;;31.88;34.71
23446;BME280;11895;48.738;9.320;2023-05-21T12:12:51;98273.88;;;32.11;35.55
23446;BME280;11895;48.738;9.320;2023-05-21T12:15:25;98278.63;;;32.42;34.79
23446;BME280;11895;48.738;9.320;2023-05-21T12:17:53;98277.22;;;32.58;34.90
23446;BME280;11895;48.738;9.320;2023-05-21T12:20:22;98280.31;;;32.49;32.70
23446;BME280;11895;48.738;9.320;2023-05-21T12:22:50;98277.53;;;32.49;34.41
23446;BME280;11895;48.738;9.320;2023-05-21T12:25:20;98278.47;;;32.62;34.50
23446;BME280;11895;48.738;9.320;2023-05-21T12:27:48;98273.00;;;32.48;32.99
23446;BME280;11895;48.738;9.320;2023-05-21T12:30:25;98283.97;;;32.75;33.24
23446;BME280;11895;48.738;9.320;2023-05-21T12:32:57;98276.59;;;33.31;32.24
23446;BME280;11895;48.738;9.320;2023-05-21T12:35:26;98279.63;;;33.54;31.94
23446;BME280;11895;48.738;9.320;2023-05-21T12:37:53;98278.66;;;33.42;31.66
23446;BME280;11895;48.738;9.320;2023-05-21T12:40:21;98272.19;;;33.48;31.07
23446;BME280;11895;48.738;9.320;2023-05-21T12:42:49;98274.78;;;32.99;30.88
23446;BME280;11895;48.738;9.320;2023-05-21T12:45:18;98280.38;;;32.36;31.42
23446;BME280;11895;48.738;9.320;2023-05-21T12:47:47;98275.44;;;32.70;31.80
23446;BME280;11895;48.738;9.320;2023-05-21T12:50:24;98277.28;;;33.08;31.76
23446;BME280;11895;48.738;9.320;2023-05-21T12:52:56;98276.63;;;32.81;31.65
23446;BME280;11895;48.738;9.320;2023-05-21T12:55:24;98276.38;;;33.14;32.20
23446;BME280;11895;48.738;9.320;2023-05-21T12:58:05;98276.13;;;33.77;31.78
23446;BME280;11895;48.738;9.320;2023-05-21T13:00:35;98271.44;;;33.89;31.44
23446;BME280;11895;48.738;9.320;2023-05-21T13:03:04;98280.31;;;33.49;30.70
23446;BME280;11895;48.738;9.320;2023-05-21T13:05:33;98273.50;;;33.82;31.12
23446;BME280;11895;48.738;9.320;2023-05-21T13:08:02;98276.50;;;34.47;29.69
23446;BME280;11895;48.738;9.320;2023-05-21T13:10:29;98268.53;;;33.66;28.28
23446;BME280;11895;48.738;9.320;2023-05-21T13:12:57;98271.81;;;34.30;29.73
23446;BME280;11895;48.738;9.320;2023-05-21T13:15:24;98270.78;;;34.84;29.00
23446;BME280;11895;48.738;9.320;2023-05-21T13:17:52;98272.41;;;35.27;28.20
23446;BME280;11895;48.738;9.320;2023-05-21T13:20:23;98271.81;;;35.25;26.98
23446;BME280;11895;48.738;9.320;2023-05-21T13:22:53;98270.78;;;35.78;27.82
23446;BME280;11895;48.738;9.320;2023-05-21T13:25:24;98270.19;;;35.06;28.24
23446;BME280;11895;48.738;9.320;2023-05-21T13:27:56;98269.00;;;35.48;26.31
23446;BME280;11895;48.738;9.320;2023-05-21T13:30:24;98266.22;;;34.71;27.23
23446;BME280;11895;48.738;9.320;2023-05-21T13:32:51;98263.41;;;35.60;27.52
23446;BME280;11895;48.738;9.320;2023-05-21T13:35:19;98267.63;;;34.92;27.58
23446;BME280;11895;48.738;9.320;2023-05-21T13:37:46;98269.09;;;35.77;27.89
23446;BME280;11895;48.738;9.320;2023-05-21T13:40:14;98270.97;;;36.40;25.97
23446;BME280;11895;48.738;9.320;2023-05-21T13:42:45;98267.28;;;35.71;24.88
23446;BME280;11895;48.738;9.320;2023-05-21T13:45:17;98271.44;;;35.45;24.76
23446;BME280;11895;48.738;9.320;2023-05-21T13:47:46;98266.03;;;34.85;25.95
23446;BME280;11895;48.738;9.320;2023-05-21T13:50:19;98265.31;;;34.47;27.05
23446;BME280;11895;48.738;9.320;2023-05-21T13:52:47;98264.25;;;35.37;26.16
23446;BME280;11895;48.738;9.320;2023-05-21T13:55:15;98271.75;;;34.90;26.96
23446;BME280;11895;48.738;9.320;2023-05-21T13:57:43;98272.41;;;34.01;27.20
23446;BME280;11895;48.738;9.320;2023-05-21T14:00:13;98269.66;;;32.96;28.54
23446;BME280;11895;48.738;9.320;2023-05-21T14:02:42;98272.88;;;33.18;28.57
23446;BME280;11895;48.738;9.320;2023-05-21T14:05:11;98276.47;;;33.00;28.84
23446;BME280;11895;48.738;9.320;2023-05-21T14:07:39;98273.34;;;32.90;28.76
23446;BME280;11895;48.738;9.320;2023-05-21T14:10:08;98272.72;;;32.88;29.88
23446;BME280;11895;48.738;9.320;2023-05-21T14:12:35;98271.88;;;33.31;29.07
23446;BME280;11895;48.738;9.320;2023-05-21T14:15:05;98274.13;;;33.22;29.12
23446;BME280;11895;48.738;9.320;2023-05-21T14:17:33;98274.06;;;33.29;29.29
23446;BME280;11895;48.738;9.320;2023-05-21T14:20:02;98276.16;;;33.34;29.50
23446;BME280;11895;48.738;9.320;2023-05-21T14:22:30;98259.81;;;33.37;29.54
23446;BME280;11895;48.738;9.320;2023-05-21T14:24:58;98274.06;;;33.29;29.29
23446;BME280;11895;48.738;9.320;2023-05-21T14:27:25;98271.72;;;33.08;29.50
23446;BME280;11895;48.738;9.320;2023-05-21T14:29:53;98265.38;;;32.37;28.91
23446;BME280;11895;48.738;9.320;2023-05-21T14:32:20;98272.63;;;32.38;28.74
23446;BME280;11895;48.738;9.320;2023-05-21T14:34:48;98266.06;;;31.74;29.53
23446;BME280;11895;48.738;9.320;2023-05-21T14:37:15;98258.75;;;30.95;30.28
23446;BME280;11895;48.738;9.320;2023-05-21T14:39:43;98263.88;;;30.85;31.47
23446;BME280;11895;48.738;9.320;2023-05-21T14:42:10;98253.34;;;31.27;30.73
23446;BME280;11895;48.738;9.320;2023-05-21T14:44:38;98257.09;;;31.66;30.34
23446;BME280;11895;48.738;9.320;2023-05-21T14:47:05;98251.41;;;31.99;29.92
23446;BME280;11895;48.738;9.320;2023-05-21T14:49:33;98253.00;;;32.20;29.61
23446;BME280;11895;48.738;9.320;2023-05-21T14:52:00;98258.63;;;32.13;29.24
23446;BME280;11895;48.738;9.320;2023-05-21T14:54:28;98249.03;;;32.34;29.10
23446;BME280;11895;48.738;9.320;2023-05-21T14:56:56;98254.56;;;32.47;28.98
23446;BME280;11895;48.738;9.320;2023-05-21T14:59:23;98253.78;;;32.40;29.17
23446;BME280;11895;48.738;9.320;2023-05-21T15:01:52;98256.28;;;32.48;29.77
23446;BME280;11895;48.738;9.320;2023-05-21T15:04:19;98255.47;;;32.41;30.30
23446;BME280;11895;48.738;9.320;2023-05-21T15:06:47;98245.13;;;32.48;29.62
23446;BME280;11895;48.738;9.320;2023-05-21T15:09:16;98255.16;;;31.73;30.97